createdAt,value
2019-02-04T00:00:43.707Z,97.20
2019-02-04T00:03:13.622Z,97.10
2019-02-04T00:05:42.556Z,97.00
2019-02-04T00:08:11.584Z,96.90
2019-02-04T00:10:40.543Z,97.40
2019-02-04T00:13:09.522Z,97.10
2019-02-04T00:15:38.498Z,97.10
2019-02-04T00:18:07.552Z,97.10
2019-02-04T00:20:36.630Z,97.00
2019-02-04T00:23:05.697Z,97.20
2019-02-04T00:25:35.195Z,97.30
2019-02-04T00:28:04.147Z,97.20
2019-02-04T00:30:33.191Z,97.40
2019-02-04T00:33:02.997Z,97.60
2019-02-04T00:35:31.886Z,97.60
2019-02-04T00:38:00.782Z,97.80
2019-02-04T00:40:30.212Z,97.50
2019-02-04T00:42:59.431Z,97.60
2019-02-04T00:45:28.664Z,97.60
2019-02-04T00:47:57.574Z,97.40
2019-02-04T00:50:26.535Z,97.40
2019-02-04T00:52:55.486Z,97.40
2019-02-04T00:55:24.803Z,97.30
2019-02-04T00:57:53.612Z,97.30
2019-02-04T01:00:26.755Z,97.20
2019-02-04T01:02:56.091Z,97.30
2019-02-04T01:05:25.598Z,97.20
2019-02-04T01:07:55.274Z,97.20
2019-02-04T01:10:25.883Z,97.30
2019-02-04T01:12:55.028Z,97.30
2019-02-04T01:15:23.922Z,97.30
2019-02-04T01:17:52.770Z,97.30
2019-02-04T01:20:24.303Z,97.20
2019-02-04T01:22:53.551Z,97.30
2019-02-04T01:25:22.557Z,96.80
2019-02-04T01:27:51.518Z,96.80
2019-02-04T01:30:21.631Z,96.70
2019-02-04T01:32:50.634Z,96.60
2019-02-04T01:35:19.633Z,96.70
2019-02-04T01:37:48.799Z,96.40
2019-02-04T01:40:19.886Z,96.40
2019-02-04T01:43:07.909Z,96.40
2019-02-04T01:45:36.758Z,96.40
2019-02-04T01:48:05.874Z,96.20
2019-02-04T01:50:34.810Z,96.20
2019-02-04T01:53:03.766Z,95.90
2019-02-04T01:55:32.570Z,95.70
2019-02-04T01:58:01.443Z,96.00
2019-02-04T02:00:33.291Z,96.00
2019-02-04T02:03:02.509Z,96.10
2019-02-04T02:05:31.558Z,96.20
2019-02-04T02:08:00.962Z,96.20
2019-02-04T02:10:30.066Z,96.30
2019-02-04T02:12:59.099Z,96.40
2019-02-04T02:15:28.109Z,96.40
2019-02-04T02:17:57.118Z,96.30
2019-02-04T02:20:28.622Z,96.40
2019-02-04T02:22:57.610Z,96.30
2019-02-04T02:25:26.732Z,96.30
2019-02-04T02:27:55.795Z,96.20
2019-02-04T02:30:27.674Z,96.40
2019-02-04T02:32:56.635Z,96.50
2019-02-04T02:35:25.659Z,96.40
2019-02-04T02:37:54.705Z,96.20
2019-02-04T02:40:32.053Z,96.30
2019-02-04T02:43:01.516Z,96.30
2019-02-04T02:45:30.653Z,96.30
2019-02-04T02:48:00.028Z,96.30
2019-02-04T02:50:29.151Z,96.40
2019-02-04T02:52:58.152Z,96.60
2019-02-04T02:55:27.525Z,96.70
2019-02-04T02:57:56.907Z,96.90
2019-02-04T03:00:27.674Z,96.70
2019-02-04T03:02:56.721Z,96.70
2019-02-04T03:05:25.850Z,96.80
2019-02-04T03:07:54.869Z,96.80
2019-02-04T03:10:28.975Z,96.90
2019-02-04T03:12:58.029Z,96.90
2019-02-04T03:15:27.160Z,97.00
2019-02-04T03:17:56.216Z,97.10
2019-02-04T03:20:25.335Z,97.20
2019-02-04T03:22:54.384Z,97.00
2019-02-04T03:25:23.809Z,97.10
2019-02-04T03:27:52.752Z,97.10
2019-02-04T03:30:27.591Z,97.10
2019-02-04T03:32:56.733Z,97.20
2019-02-04T03:35:25.740Z,97.20
2019-02-04T03:37:54.777Z,97.20
2019-02-04T03:40:26.465Z,97.50
2019-02-04T03:42:55.629Z,97.20
2019-02-04T03:45:24.780Z,97.00
2019-02-04T03:48:04.233Z,97.10
2019-02-04T03:50:24.799Z,97.00
2019-02-04T03:52:54.404Z,97.10
2019-02-04T03:55:23.414Z,97.10
2019-02-04T03:57:52.448Z,97.20
2019-02-04T04:00:26.754Z,97.20
2019-02-04T04:02:55.812Z,97.20
2019-02-04T04:05:25.191Z,97.40
2019-02-04T04:07:54.245Z,97.40
2019-02-04T04:10:23.250Z,97.50
2019-02-04T04:12:52.355Z,97.60
2019-02-04T04:15:21.375Z,97.60
2019-02-04T04:17:50.374Z,97.50
2019-02-04T04:20:20.168Z,97.60
2019-02-04T04:22:49.172Z,97.70
2019-02-04T04:25:18.370Z,97.60
2019-02-04T04:27:47.653Z,97.70
2019-02-04T04:30:21.977Z,97.60
2019-02-04T04:32:51.037Z,97.60
2019-02-04T04:35:20.080Z,97.50
2019-02-04T04:37:49.180Z,97.70
2019-02-04T04:40:18.647Z,97.70
2019-02-04T04:42:47.746Z,97.70
2019-02-04T04:45:18.719Z,97.70
2019-02-04T04:47:48.109Z,97.80
2019-02-04T04:50:17.230Z,97.90
2019-02-04T04:52:46.289Z,97.90
2019-02-04T04:55:18.518Z,97.90
2019-02-04T04:57:47.544Z,97.90
2019-02-04T05:00:19.415Z,98.00
2019-02-04T05:02:48.436Z,97.90
2019-02-04T05:05:17.436Z,97.70
2019-02-04T05:07:46.488Z,97.80
2019-02-04T05:10:17.082Z,97.90
2019-02-04T05:12:46.124Z,97.40
2019-02-04T05:15:17.714Z,97.50
2019-02-04T05:17:46.988Z,97.60
2019-02-04T05:20:16.438Z,97.50
2019-02-04T05:22:45.869Z,97.70
2019-02-04T05:25:15.375Z,97.30
2019-02-04T05:27:44.664Z,97.20
2019-02-04T05:30:16.236Z,97.40
2019-02-04T05:32:45.295Z,97.50
2019-02-04T05:35:14.318Z,97.80
2019-02-04T05:37:43.617Z,98.10
2019-02-04T05:40:13.896Z,98.30
2019-02-04T05:42:43.025Z,98.30
2019-02-04T05:45:13.577Z,98.30
2019-02-04T05:47:42.609Z,98.40
2019-02-04T05:50:13.530Z,98.30
2019-02-04T05:52:42.664Z,98.40
2019-02-04T05:55:13.148Z,98.20
2019-02-04T05:57:42.469Z,98.00
2019-02-04T06:00:14.602Z,98.50
2019-02-04T06:02:43.603Z,98.70
2019-02-04T06:05:13.022Z,98.50
2019-02-04T06:07:42.044Z,98.30
2019-02-04T06:10:11.118Z,98.40
2019-02-04T06:12:40.193Z,98.50
2019-02-04T06:15:10.219Z,99.10
2019-02-04T06:17:39.264Z,98.70
2019-02-04T06:20:11.867Z,98.70
2019-02-04T06:22:43.700Z,98.90
2019-02-04T06:25:13.049Z,99.20
2019-02-04T06:27:42.046Z,99.50
2019-02-04T06:30:11.534Z,99.40
2019-02-04T06:32:40.541Z,99.40
2019-02-04T06:35:10.248Z,99.40
2019-02-04T06:37:39.260Z,99.30
2019-02-04T06:40:11.047Z,99.30
2019-02-04T06:42:40.633Z,99.40
2019-02-04T06:45:11.148Z,99.50
2019-02-04T06:47:40.176Z,99.50
2019-02-04T06:50:11.352Z,99.70
2019-02-04T06:52:40.681Z,99.70
2019-02-04T06:55:12.855Z,99.90
2019-02-04T06:57:42.261Z,99.90
2019-02-04T07:00:12.632Z,99.90
2019-02-04T07:02:41.680Z,99.90
2019-02-04T07:05:10.795Z,99.90
2019-02-04T07:07:40.097Z,99.90
2019-02-04T07:10:11.569Z,99.90
2019-02-04T07:12:40.924Z,99.90
2019-02-04T07:15:10.369Z,99.90
2019-02-04T07:17:39.400Z,99.90
2019-02-04T07:20:10.947Z,99.90
2019-02-04T07:22:39.904Z,99.90
2019-02-04T07:25:09.940Z,99.90
2019-02-04T07:27:38.978Z,99.90
2019-02-04T07:30:10.560Z,99.90
2019-02-04T07:32:39.591Z,99.90
2019-02-04T07:35:09.897Z,99.90
2019-02-04T07:37:39.196Z,99.90
2019-02-04T07:40:18.472Z,99.90
2019-02-04T07:42:48.318Z,99.90
2019-02-04T07:45:17.637Z,99.90
2019-02-04T07:47:46.982Z,99.90
2019-02-04T07:50:16.025Z,99.90
2019-02-04T07:52:45.057Z,99.90
2019-02-04T07:55:14.159Z,99.90
2019-02-04T07:57:43.192Z,99.90
2019-02-04T08:00:18.037Z,98.50
2019-02-04T08:02:47.345Z,97.30
2019-02-04T08:05:16.353Z,96.10
2019-02-04T08:07:45.608Z,93.60
2019-02-04T08:10:14.720Z,91.50
2019-02-04T08:12:43.876Z,89.80
2019-02-04T08:15:21.964Z,85.30
2019-02-04T08:17:50.954Z,81.00
2019-02-04T08:20:22.619Z,79.80
2019-02-04T08:22:50.552Z,76.70
2019-02-04T08:25:19.576Z,74.20
2019-02-04T08:27:48.585Z,71.70
2019-02-04T08:30:20.932Z,68.50
2019-02-04T08:32:50.145Z,66.20
2019-02-04T08:35:19.235Z,64.50
2019-02-04T08:37:48.184Z,61.70
2019-02-04T08:40:17.211Z,59.40
2019-02-04T08:42:46.211Z,57.20
2019-02-04T08:45:15.792Z,57.20
2019-02-04T08:47:44.918Z,56.50
2019-02-04T08:50:16.176Z,53.70
2019-02-04T08:52:45.383Z,53.60
2019-02-04T08:55:15.129Z,55.80
2019-02-04T08:57:44.180Z,54.30
2019-02-04T09:00:16.297Z,53.60
2019-02-04T09:02:45.328Z,51.50
2019-02-04T09:05:14.767Z,50.90
2019-02-04T09:07:44.516Z,50.20
2019-02-04T09:10:17.388Z,49.10
2019-02-04T09:12:46.372Z,49.90
2019-02-04T09:15:16.265Z,48.80
2019-02-04T09:17:45.508Z,50.50
2019-02-04T09:20:16.156Z,51.40
2019-02-04T09:22:45.281Z,53.80
2019-02-04T09:25:15.585Z,53.30
2019-02-04T09:27:44.615Z,54.40
2019-02-04T09:30:24.609Z,52.00
2019-02-04T09:32:54.196Z,51.00
2019-02-04T09:35:23.204Z,49.90
2019-02-04T09:38:08.771Z,47.10
2019-02-04T09:40:42.777Z,46.00
2019-02-04T09:43:12.133Z,45.70
2019-02-04T09:45:42.806Z,47.30
2019-02-04T09:48:15.555Z,48.40
2019-02-04T09:50:44.891Z,48.70
2019-02-04T09:53:14.724Z,45.60
2019-02-04T09:55:43.844Z,43.00
2019-02-04T09:58:12.764Z,42.90
2019-02-04T10:00:41.780Z,42.70
2019-02-04T10:03:10.661Z,42.20
2019-02-04T10:05:39.825Z,42.00
2019-02-04T10:08:09.023Z,43.30
2019-02-04T10:10:38.027Z,44.00
2019-02-04T10:13:07.087Z,45.80
2019-02-04T10:15:38.057Z,47.20
2019-02-04T10:18:08.347Z,47.90
2019-02-04T10:20:37.726Z,46.80
2019-02-04T10:23:07.038Z,47.60
2019-02-04T10:25:37.962Z,47.70
2019-02-04T10:28:08.057Z,46.00
2019-02-04T10:30:37.299Z,44.70
2019-02-04T10:33:06.446Z,45.40
2019-02-04T10:35:35.723Z,45.30
2019-02-04T10:38:05.006Z,46.70
2019-02-04T10:40:34.043Z,45.50
2019-02-04T10:43:03.536Z,45.40
2019-02-04T10:45:32.642Z,43.80
2019-02-04T10:48:01.630Z,43.70
2019-02-04T10:50:32.723Z,44.90
2019-02-04T10:53:01.747Z,45.50
2019-02-04T10:55:30.795Z,43.70
2019-02-04T10:57:59.890Z,42.60
2019-02-04T11:00:31.409Z,43.10
2019-02-04T11:03:00.760Z,42.40
2019-02-04T11:05:31.698Z,43.20
2019-02-04T11:08:01.140Z,42.80
2019-02-04T11:10:36.077Z,42.60
2019-02-04T11:13:08.467Z,42.60
2019-02-04T11:15:37.535Z,42.30
2019-02-04T11:18:06.660Z,39.80
2019-02-04T11:20:36.293Z,40.10
2019-02-04T11:23:06.604Z,38.80
2019-02-04T11:25:35.861Z,36.20
2019-02-04T11:28:05.951Z,37.30
2019-02-04T11:30:38.217Z,36.90
2019-02-04T11:33:07.650Z,37.60
2019-02-04T11:35:37.133Z,38.00
2019-02-04T11:38:06.477Z,38.00
2019-02-04T11:40:37.540Z,37.00
2019-02-04T11:43:06.741Z,38.10
2019-02-04T11:45:35.826Z,38.50
2019-02-04T11:48:07.559Z,38.90
2019-02-04T11:50:37.057Z,40.30
2019-02-04T11:53:06.150Z,42.00
2019-02-04T11:55:35.155Z,43.80
2019-02-04T11:58:07.711Z,44.40
2019-02-04T12:00:36.868Z,44.10
2019-02-04T12:03:06.245Z,43.50
2019-02-04T12:05:35.264Z,42.80
2019-02-04T12:08:04.365Z,43.30
2019-02-04T12:10:39.487Z,42.90
2019-02-04T12:13:08.841Z,43.60
2019-02-04T12:15:37.844Z,43.70
2019-02-04T12:18:06.893Z,42.60
2019-02-04T12:20:35.813Z,42.80
2019-02-04T12:23:05.533Z,42.50
2019-02-04T12:25:34.553Z,43.50
2019-02-04T12:28:03.550Z,44.60
2019-02-04T12:30:34.649Z,42.80
2019-02-04T12:33:05.008Z,39.90
2019-02-04T12:35:34.041Z,39.20
2019-02-04T12:38:03.139Z,40.30
2019-02-04T12:40:32.813Z,42.30
2019-02-04T12:43:01.944Z,42.50
2019-02-04T12:45:33.141Z,40.60
2019-02-04T12:48:02.167Z,38.60
2019-02-04T12:50:31.203Z,38.30
2019-02-04T12:53:00.236Z,39.00
2019-02-04T12:55:30.085Z,37.60
2019-02-04T12:57:59.101Z,39.60
2019-02-04T13:00:28.723Z,39.80
2019-02-04T13:02:58.096Z,40.30
2019-02-04T13:05:38.832Z,38.70
2019-02-04T13:08:09.152Z,37.00
2019-02-04T13:10:38.176Z,39.90
2019-02-04T13:13:10.068Z,43.10
2019-02-04T13:15:39.368Z,43.90
2019-02-04T13:18:08.876Z,45.20
2019-02-04T13:20:38.387Z,44.10
2019-02-04T13:23:07.494Z,42.50
2019-02-04T13:25:36.515Z,40.90
2019-02-04T13:28:07.615Z,41.50
2019-02-04T13:30:36.678Z,41.60
2019-02-04T13:33:05.696Z,41.60
2019-02-04T13:35:35.127Z,42.80
2019-02-04T13:38:04.759Z,43.10
2019-02-04T13:40:33.779Z,43.80
2019-02-04T13:43:02.828Z,44.30
2019-02-04T13:45:31.852Z,43.90
2019-02-04T13:48:00.886Z,45.10
2019-02-04T13:50:30.753Z,44.70
2019-02-04T13:53:00.197Z,44.90
2019-02-04T13:55:30.660Z,44.20
2019-02-04T13:58:00.079Z,44.50
2019-02-04T14:00:29.394Z,45.00
2019-02-04T14:02:59.859Z,46.00
2019-02-04T14:05:31.322Z,44.80
2019-02-04T14:08:01.113Z,43.80
2019-02-04T14:10:32.676Z,43.40
2019-02-04T14:13:01.740Z,44.10
2019-02-04T14:15:31.356Z,42.40
2019-02-04T14:18:00.650Z,42.40
2019-02-04T14:20:29.693Z,42.00
2019-02-04T14:22:58.712Z,41.40
2019-02-04T14:25:27.778Z,43.00
2019-02-04T14:27:56.712Z,43.60
2019-02-04T14:30:31.525Z,43.50
2019-02-04T14:33:00.464Z,44.40
2019-02-04T14:35:29.568Z,45.50
2019-02-04T14:37:59.107Z,46.10
2019-02-04T14:40:28.277Z,46.00
2019-02-04T14:43:00.936Z,46.50
2019-02-04T14:46:26.668Z,47.60
2019-02-04T14:49:46.059Z,45.30
2019-02-04T14:52:37.819Z,46.40
2019-02-04T14:56:00.540Z,46.50
2019-02-04T14:59:07.020Z,47.00
2019-02-04T15:02:17.428Z,47.90
2019-02-04T15:05:01.862Z,49.80
2019-02-04T15:07:59.371Z,48.40
2019-02-04T15:11:01.655Z,46.60
2019-02-04T15:13:46.866Z,48.70
2019-02-04T15:16:25.444Z,47.30
2019-02-04T15:19:30.620Z,47.40
2019-02-04T15:22:10.405Z,47.80
2019-02-04T15:25:19.312Z,49.30
2019-02-04T15:28:22.886Z,49.90
2019-02-04T15:31:05.805Z,49.50
2019-02-04T15:33:41.525Z,50.80
2019-02-04T15:36:54.715Z,51.70
2019-02-04T15:39:45.439Z,52.50
2019-02-04T15:42:42.912Z,54.90
2019-02-04T15:45:38.037Z,55.90
2019-02-04T15:48:15.538Z,58.20
2019-02-04T15:50:57.007Z,60.90
2019-02-04T15:53:25.968Z,65.20
2019-02-04T15:55:54.996Z,69.20
2019-02-04T15:58:24.031Z,71.20
2019-02-04T16:00:53.072Z,72.80
2019-02-04T16:03:22.058Z,75.20
2019-02-04T16:05:51.125Z,76.50
2019-02-04T16:08:20.107Z,79.70
2019-02-04T16:10:49.125Z,81.40
2019-02-04T16:13:18.374Z,82.70
2019-02-04T16:15:47.423Z,84.60
2019-02-04T16:18:16.448Z,86.20
2019-02-04T16:20:45.460Z,88.70
2019-02-04T16:23:14.504Z,90.10
2019-02-04T16:25:43.503Z,90.70
2019-02-04T16:28:12.516Z,91.50
2019-02-04T16:30:41.539Z,92.00
2019-02-04T16:33:10.558Z,92.80
2019-02-04T16:35:39.615Z,93.00
2019-02-04T16:38:08.632Z,93.60
2019-02-04T16:40:37.801Z,94.10
2019-02-04T16:43:06.829Z,94.10
2019-02-04T16:45:36.144Z,94.80
2019-02-04T16:48:05.167Z,94.60
2019-02-04T16:50:34.259Z,95.00
2019-02-04T16:53:10.485Z,95.40
2019-02-04T16:55:34.073Z,95.40
2019-02-04T16:58:03.115Z,95.80
2019-02-04T17:00:32.985Z,96.40
2019-02-04T17:03:02.847Z,96.30
2019-02-04T17:05:31.828Z,95.90
2019-02-04T17:08:00.879Z,96.10
2019-02-04T17:10:29.891Z,96.10
2019-02-04T17:12:58.946Z,96.20
2019-02-04T17:15:28.345Z,96.40
2019-02-04T17:17:57.280Z,96.60
2019-02-04T17:20:28.648Z,97.20
2019-02-04T17:22:57.932Z,97.00
2019-02-04T17:25:26.972Z,97.10
2019-02-04T17:27:55.992Z,97.10
2019-02-04T17:30:25.352Z,97.20
2019-02-04T17:32:54.708Z,97.70
2019-02-04T17:35:23.917Z,98.10
2019-02-04T17:37:52.880Z,98.40
2019-02-04T17:40:22.720Z,98.20
2019-02-04T17:42:52.764Z,98.00
2019-02-04T17:45:21.800Z,98.00
2019-02-04T17:47:51.515Z,98.60
2019-02-04T17:50:20.841Z,98.60
2019-02-04T17:52:49.916Z,98.60
2019-02-04T17:55:20.558Z,98.30
2019-02-04T17:57:49.609Z,98.50
2019-02-04T18:00:25.059Z,98.50
2019-02-04T18:02:54.034Z,98.20
2019-02-04T18:05:23.144Z,98.00
2019-02-04T18:07:52.157Z,98.40
2019-02-04T18:10:21.395Z,98.60
2019-02-04T18:12:50.763Z,98.60
2019-02-04T18:15:20.028Z,98.70
2019-02-04T18:17:49.317Z,99.10
2019-02-04T18:20:18.428Z,98.80
2019-02-04T18:22:47.441Z,98.90
2019-02-04T18:25:16.633Z,98.80
2019-02-04T18:27:45.883Z,98.90
2019-02-04T18:30:17.216Z,98.80
2019-02-04T18:32:46.277Z,98.80
2019-02-04T18:35:16.007Z,98.80
2019-02-04T18:37:45.606Z,99.00
2019-02-04T18:40:15.972Z,99.20
2019-02-04T18:42:45.147Z,98.90
2019-02-04T18:45:19.585Z,98.90
2019-02-04T18:47:48.666Z,98.90
2019-02-04T18:50:18.376Z,98.70
2019-02-04T18:52:47.820Z,98.90
2019-02-04T18:55:19.228Z,98.90
2019-02-04T18:57:48.292Z,98.80
2019-02-04T19:00:19.857Z,99.20
2019-02-04T19:02:48.883Z,99.20
2019-02-04T19:05:18.534Z,99.10
2019-02-04T19:07:47.636Z,99.40
2019-02-04T19:10:18.362Z,99.60
2019-02-04T19:12:47.421Z,99.50
2019-02-04T19:15:18.240Z,99.40
2019-02-04T19:17:47.966Z,99.20
2019-02-04T19:20:19.130Z,99.50
2019-02-04T19:22:48.092Z,99.30
2019-02-04T19:25:17.608Z,99.30
2019-02-04T19:27:46.963Z,99.40
2019-02-04T19:30:28.203Z,99.40
2019-02-04T19:32:57.493Z,99.40
2019-02-04T19:35:26.512Z,99.70
2019-02-04T19:37:56.296Z,99.80
2019-02-04T19:40:25.347Z,99.80
2019-02-04T19:42:54.372Z,99.80
2019-02-04T19:45:23.742Z,99.80
2019-02-04T19:47:53.046Z,99.80
2019-02-04T19:50:24.896Z,99.80
2019-02-04T19:52:53.850Z,99.80
2019-02-04T19:55:22.948Z,99.90
2019-02-04T19:57:52.048Z,99.90
2019-02-04T20:00:21.254Z,99.70
2019-02-04T20:02:50.972Z,99.20
2019-02-04T20:05:21.219Z,99.10
2019-02-04T20:07:50.297Z,99.00
2019-02-04T20:10:22.171Z,99.10
2019-02-04T20:12:51.940Z,99.00
2019-02-04T20:15:23.160Z,98.90
2019-02-04T20:17:52.181Z,98.80
2019-02-04T20:20:21.281Z,99.10
2019-02-04T20:22:50.317Z,99.00
2019-02-04T20:25:22.080Z,98.90
2019-02-04T20:27:51.344Z,99.00
2019-02-04T20:30:29.155Z,98.80
2019-02-04T20:32:58.136Z,98.70
2019-02-04T20:35:27.163Z,98.50
2019-02-04T20:37:56.256Z,98.60
2019-02-04T20:40:25.396Z,98.40
2019-02-04T20:42:54.414Z,98.40
2019-02-04T20:45:24.232Z,98.30
2019-02-04T20:47:53.246Z,98.40
2019-02-04T20:50:28.147Z,98.30
2019-02-04T20:52:57.185Z,98.60
2019-02-04T20:55:26.204Z,98.50
2019-02-04T20:57:55.192Z,98.80
2019-02-04T21:00:26.003Z,98.70
2019-02-04T21:02:55.116Z,98.30
2019-02-04T21:05:24.188Z,98.30
2019-02-04T21:07:53.196Z,98.20
2019-02-04T21:10:23.285Z,98.40
2019-02-04T21:12:52.446Z,98.20
2019-02-04T21:15:22.308Z,98.20
2019-02-04T21:17:51.540Z,98.40
2019-02-04T21:20:22.147Z,98.20
2019-02-04T21:22:52.657Z,98.30
2019-02-04T21:25:21.746Z,98.10
2019-02-04T21:27:51.256Z,98.40
2019-02-04T21:30:25.471Z,98.40
2019-02-04T21:32:54.427Z,98.50
2019-02-04T21:35:23.463Z,98.50
2019-02-04T21:37:52.492Z,98.60
2019-02-04T21:40:21.893Z,98.50
2019-02-04T21:42:50.916Z,98.40
2019-02-04T21:45:20.852Z,98.20
2019-02-04T21:47:50.346Z,97.90
2019-02-04T21:50:21.220Z,98.00
2019-02-04T21:52:50.351Z,97.90
2019-02-04T21:55:20.212Z,97.90
2019-02-04T21:57:49.285Z,97.70
2019-02-04T22:00:20.656Z,98.30
2019-02-04T22:02:49.692Z,98.20
2019-02-04T22:05:19.312Z,97.80
2019-02-04T22:07:48.785Z,97.50
2019-02-04T22:10:19.580Z,97.50
2019-02-04T22:12:48.694Z,97.50
2019-02-04T22:15:17.704Z,97.90
2019-02-04T22:17:46.826Z,97.90
2019-02-04T22:20:17.024Z,97.60
2019-02-04T22:22:46.343Z,97.50
2019-02-04T22:25:19.862Z,97.50
2019-02-04T22:27:48.167Z,97.60
2019-02-04T22:30:22.188Z,97.40
2019-02-04T22:32:51.202Z,97.30
2019-02-04T22:35:20.588Z,97.40
2019-02-04T22:37:49.705Z,97.70
2019-02-04T22:40:21.473Z,97.30
2019-02-04T22:42:50.680Z,97.30
2019-02-04T22:45:19.711Z,97.60
2019-02-04T22:47:48.873Z,97.70
2019-02-04T22:50:25.944Z,97.80
2019-02-04T22:52:54.951Z,97.20
2019-02-04T22:55:32.119Z,97.10
2019-02-04T22:57:55.617Z,97.70
2019-02-04T23:00:50.971Z,97.30
2019-02-04T23:03:21.727Z,97.30
2019-02-04T23:05:50.862Z,97.40
2019-02-04T23:08:20.214Z,97.30
2019-02-04T23:10:49.819Z,97.40
2019-02-04T23:13:18.887Z,97.60
2019-02-04T23:15:47.909Z,97.40
2019-02-04T23:18:16.952Z,97.30
2019-02-04T23:20:45.982Z,97.50
2019-02-04T23:23:15.299Z,97.50
2019-02-04T23:25:44.464Z,97.70
2019-02-04T23:28:13.505Z,97.70
2019-02-04T23:30:42.595Z,98.10
2019-02-04T23:33:11.657Z,98.10
2019-02-04T23:35:41.652Z,97.60
2019-02-04T23:38:11.019Z,97.70
2019-02-04T23:40:40.108Z,97.80
2019-02-04T23:43:09.287Z,97.70
2019-02-04T23:45:38.357Z,97.80
2019-02-04T23:48:08.446Z,97.60
2019-02-04T23:50:37.531Z,98.00
2019-02-04T23:53:06.564Z,98.30
2019-02-04T23:55:35.625Z,98.50
2019-02-04T23:58:04.739Z,98.50
